sensor_id;sensor_type;location;lat;lon;timestamp;temperature;humidity
22319;DHT22;11327;52.334;9.506;2022-11-25T00:01:27;5.10;99.90
22319;DHT22;11327;52.334;9.506;2022-11-25T00:04:48;5.00;99.90
22319;DHT22;11327;52.334;9.506;2022-11-25T00:08:09;5.00;99.90
22319;DHT22;11327;52.334;9.506;2022-11-25T00:11:31;5.00;99.90
22319;DHT22;11327;52.334;9.506;2022-11-25T00:14:53;5.00;99.90
22319;DHT22;11327;52.334;9.506;2022-11-25T00:18:14;5.00;99.90
22319;DHT22;11327;52.334;9.506;2022-11-25T00:21:35;5.00;99.90
22319;DHT22;11327;52.334;9.506;2022-11-25T00:24:56;4.90;99.90
22319;DHT22;11327;52.334;9.506;2022-11-25T00:28:17;5.00;99.90
22319;DHT22;11327;52.334;9.506;2022-11-25T00:31:39;5.00;99.90
22319;DHT22;11327;52.334;9.506;2022-11-25T00:35:00;5.00;99.90
22319;DHT22;11327;52.334;9.506;2022-11-25T00:38:21;5.00;99.90
22319;DHT22;11327;52.334;9.506;2022-11-25T00:41:43;4.90;99.90
22319;DHT22;11327;52.334;9.506;2022-11-25T00:45:23;4.90;99.90
22319;DHT22;11327;52.334;9.506;2022-11-25T00:48:44;4.90;99.90
22319;DHT22;11327;52.334;9.506;2022-11-25T00:52:05;4.80;99.90
22319;DHT22;11327;52.334;9.506;2022-11-25T00:55:26;4.80;99.90
22319;DHT22;11327;52.334;9.506;2022-11-25T00:58:49;4.80;99.90
22319;DHT22;11327;52.334;9.506;2022-11-25T01:02:11;4.70;99.90
22319;DHT22;11327;52.334;9.506;2022-11-25T01:05:32;5.10;99.90
22319;DHT22;11327;52.334;9.506;2022-11-25T01:08:53;5.50;99.90
22319;DHT22;11327;52.334;9.506;2022-11-25T01:12:14;5.80;99.90
22319;DHT22;11327;52.334;9.506;2022-11-25T01:15:36;6.00;99.90
22319;DHT22;11327;52.334;9.506;2022-11-25T01:18:58;5.90;99.90
22319;DHT22;11327;52.334;9.506;2022-11-25T01:22:19;5.80;99.90
22319;DHT22;11327;52.334;9.506;2022-11-25T01:25:40;5.60;99.90
22319;DHT22;11327;52.334;9.506;2022-11-25T01:29:04;5.60;99.90
22319;DHT22;11327;52.334;9.506;2022-11-25T01:32:25;5.50;99.90
22319;DHT22;11327;52.334;9.506;2022-11-25T01:35:46;5.50;99.90
22319;DHT22;11327;52.334;9.506;2022-11-25T01:39:09;5.50;99.90
22319;DHT22;11327;52.334;9.506;2022-11-25T01:42:30;5.90;99.90
22319;DHT22;11327;52.334;9.506;2022-11-25T01:45:52;6.10;99.90
22319;DHT22;11327;52.334;9.506;2022-11-25T01:52:45;6.30;99.90
22319;DHT22;11327;52.334;9.506;2022-11-25T01:56:06;6.20;99.90
22319;DHT22;11327;52.334;9.506;2022-11-25T01:59:28;6.40;99.90
22319;DHT22;11327;52.334;9.506;2022-11-25T02:02:53;6.40;99.90
22319;DHT22;11327;52.334;9.506;2022-11-25T02:06:31;6.40;99.90
22319;DHT22;11327;52.334;9.506;2022-11-25T02:09:51;6.30;99.90
22319;DHT22;11327;52.334;9.506;2022-11-25T02:13:13;6.30;99.90
22319;DHT22;11327;52.334;9.506;2022-11-25T02:16:35;6.10;99.90
22319;DHT22;11327;52.334;9.506;2022-11-25T02:23:50;5.80;99.90
22319;DHT22;11327;52.334;9.506;2022-11-25T02:27:10;5.70;99.90
22319;DHT22;11327;52.334;9.506;2022-11-25T02:30:31;5.60;99.90
22319;DHT22;11327;52.334;9.506;2022-11-25T02:33:52;5.50;99.90
22319;DHT22;11327;52.334;9.506;2022-11-25T02:37:16;5.50;99.90
22319;DHT22;11327;52.334;9.506;2022-11-25T02:40:58;5.70;99.90
22319;DHT22;11327;52.334;9.506;2022-11-25T02:44:19;5.90;99.90
22319;DHT22;11327;52.334;9.506;2022-11-25T02:47:40;5.90;99.90
22319;DHT22;11327;52.334;9.506;2022-11-25T02:51:02;5.90;99.90
22319;DHT22;11327;52.334;9.506;2022-11-25T02:54:23;5.90;99.90
22319;DHT22;11327;52.334;9.506;2022-11-25T02:57:44;5.80;99.90
22319;DHT22;11327;52.334;9.506;2022-11-25T03:01:05;5.70;99.90
22319;DHT22;11327;52.334;9.506;2022-11-25T03:04:27;5.80;99.90
22319;DHT22;11327;52.334;9.506;2022-11-25T03:07:48;5.70;99.90
22319;DHT22;11327;52.334;9.506;2022-11-25T03:11:09;5.60;99.90
22319;DHT22;11327;52.334;9.506;2022-11-25T03:14:30;5.60;99.90
22319;DHT22;11327;52.334;9.506;2022-11-25T03:17:51;5.60;99.90
22319;DHT22;11327;52.334;9.506;2022-11-25T03:21:12;5.60;99.90
22319;DHT22;11327;52.334;9.506;2022-11-25T03:24:33;5.60;99.90
22319;DHT22;11327;52.334;9.506;2022-11-25T03:27:54;5.50;99.90
22319;DHT22;11327;52.334;9.506;2022-11-25T03:31:15;5.50;99.90
22319;DHT22;11327;52.334;9.506;2022-11-25T03:34:36;5.40;99.90
22319;DHT22;11327;52.334;9.506;2022-11-25T03:37:57;5.40;99.90
22319;DHT22;11327;52.334;9.506;2022-11-25T03:41:18;5.60;99.90
22319;DHT22;11327;52.334;9.506;2022-11-25T03:44:39;5.80;99.90
22319;DHT22;11327;52.334;9.506;2022-11-25T03:48:00;6.00;99.90
22319;DHT22;11327;52.334;9.506;2022-11-25T03:51:20;6.20;99.90
22319;DHT22;11327;52.334;9.506;2022-11-25T03:54:41;6.20;99.90
22319;DHT22;11327;52.334;9.506;2022-11-25T03:58:02;6.20;99.90
22319;DHT22;11327;52.334;9.506;2022-11-25T04:01:23;6.30;99.90
22319;DHT22;11327;52.334;9.506;2022-11-25T04:04:44;6.20;99.90
22319;DHT22;11327;52.334;9.506;2022-11-25T04:08:05;6.20;99.90
22319;DHT22;11327;52.334;9.506;2022-11-25T04:11:26;6.10;99.90
22319;DHT22;11327;52.334;9.506;2022-11-25T04:14:49;6.10;99.90
22319;DHT22;11327;52.334;9.506;2022-11-25T04:18:10;6.10;99.90
22319;DHT22;11327;52.334;9.506;2022-11-25T04:21:31;6.10;99.90
22319;DHT22;11327;52.334;9.506;2022-11-25T04:24:52;6.10;99.90
22319;DHT22;11327;52.334;9.506;2022-11-25T04:28:13;6.00;99.90
22319;DHT22;11327;52.334;9.506;2022-11-25T04:31:34;5.90;99.90
22319;DHT22;11327;52.334;9.506;2022-11-25T04:34:54;5.90;99.90
22319;DHT22;11327;52.334;9.506;2022-11-25T04:38:15;5.90;99.90
22319;DHT22;11327;52.334;9.506;2022-11-25T04:41:36;5.80;99.90
22319;DHT22;11327;52.334;9.506;2022-11-25T04:44:59;5.90;99.90
22319;DHT22;11327;52.334;9.506;2022-11-25T04:48:20;5.90;99.90
22319;DHT22;11327;52.334;9.506;2022-11-25T04:51:41;5.90;99.90
22319;DHT22;11327;52.334;9.506;2022-11-25T04:55:02;5.90;99.90
22319;DHT22;11327;52.334;9.506;2022-11-25T04:58:23;6.10;99.90
22319;DHT22;11327;52.334;9.506;2022-11-25T05:02:03;6.20;99.90
22319;DHT22;11327;52.334;9.506;2022-11-25T05:05:24;6.30;99.90
22319;DHT22;11327;52.334;9.506;2022-11-25T05:08:47;6.30;99.90
22319;DHT22;11327;52.334;9.506;2022-11-25T05:12:12;6.30;99.90
22319;DHT22;11327;52.334;9.506;2022-11-25T05:15:33;6.40;99.90
22319;DHT22;11327;52.334;9.506;2022-11-25T05:18:54;6.40;99.90
22319;DHT22;11327;52.334;9.506;2022-11-25T05:22:19;6.30;99.90
22319;DHT22;11327;52.334;9.506;2022-11-25T05:25:40;6.20;99.90
22319;DHT22;11327;52.334;9.506;2022-11-25T05:29:01;6.10;99.90
22319;DHT22;11327;52.334;9.506;2022-11-25T05:32:22;6.20;99.90
22319;DHT22;11327;52.334;9.506;2022-11-25T05:35:43;6.30;99.90
22319;DHT22;11327;52.334;9.506;2022-11-25T05:39:04;6.20;99.90
22319;DHT22;11327;52.334;9.506;2022-11-25T05:42:25;6.40;99.90
22319;DHT22;11327;52.334;9.506;2022-11-25T05:45:48;6.50;99.90
22319;DHT22;11327;52.334;9.506;2022-11-25T05:49:09;6.50;99.90
22319;DHT22;11327;52.334;9.506;2022-11-25T05:52:30;6.40;99.90
22319;DHT22;11327;52.334;9.506;2022-11-25T05:55:56;6.50;99.90
22319;DHT22;11327;52.334;9.506;2022-11-25T05:59:17;6.80;99.90
22319;DHT22;11327;52.334;9.506;2022-11-25T06:02:38;7.10;99.90
22319;DHT22;11327;52.334;9.506;2022-11-25T06:05:59;7.20;99.90
22319;DHT22;11327;52.334;9.506;2022-11-25T06:09:20;7.20;99.90
22319;DHT22;11327;52.334;9.506;2022-11-25T06:12:41;7.10;99.90
22319;DHT22;11327;52.334;9.506;2022-11-25T06:16:10;7.00;99.90
22319;DHT22;11327;52.334;9.506;2022-11-25T06:19:31;7.00;99.90
22319;DHT22;11327;52.334;9.506;2022-11-25T06:22:52;7.00;99.90
22319;DHT22;11327;52.334;9.506;2022-11-25T06:26:17;6.90;99.90
22319;DHT22;11327;52.334;9.506;2022-11-25T06:29:39;6.80;99.90
22319;DHT22;11327;52.334;9.506;2022-11-25T06:33:00;6.80;99.90
22319;DHT22;11327;52.334;9.506;2022-11-25T06:36:21;6.80;99.90
22319;DHT22;11327;52.334;9.506;2022-11-25T06:39:42;6.80;99.90
22319;DHT22;11327;52.334;9.506;2022-11-25T06:43:03;6.80;99.90
22319;DHT22;11327;52.334;9.506;2022-11-25T06:46:24;6.90;99.90
22319;DHT22;11327;52.334;9.506;2022-11-25T06:49:45;7.00;99.90
22319;DHT22;11327;52.334;9.506;2022-11-25T06:53:06;7.00;99.90
22319;DHT22;11327;52.334;9.506;2022-11-25T06:56:27;7.00;99.90
22319;DHT22;11327;52.334;9.506;2022-11-25T06:59:48;6.90;99.90
22319;DHT22;11327;52.334;9.506;2022-11-25T07:03:10;6.90;99.90
22319;DHT22;11327;52.334;9.506;2022-11-25T07:06:32;6.90;99.90
22319;DHT22;11327;52.334;9.506;2022-11-25T07:09:53;6.90;99.90
22319;DHT22;11327;52.334;9.506;2022-11-25T07:13:14;6.90;99.90
22319;DHT22;11327;52.334;9.506;2022-11-25T07:16:36;7.20;99.90
22319;DHT22;11327;52.334;9.506;2022-11-25T07:19:58;7.30;99.90
22319;DHT22;11327;52.334;9.506;2022-11-25T07:23:19;7.40;99.90
22319;DHT22;11327;52.334;9.506;2022-11-25T07:26:41;7.50;99.90
22319;DHT22;11327;52.334;9.506;2022-11-25T07:30:03;7.60;99.90
22319;DHT22;11327;52.334;9.506;2022-11-25T07:33:24;7.60;99.90
22319;DHT22;11327;52.334;9.506;2022-11-25T07:36:46;7.70;99.90
22319;DHT22;11327;52.334;9.506;2022-11-25T07:40:08;7.80;99.90
22319;DHT22;11327;52.334;9.506;2022-11-25T07:43:29;7.80;99.90
22319;DHT22;11327;52.334;9.506;2022-11-25T07:46:50;7.80;99.90
22319;DHT22;11327;52.334;9.506;2022-11-25T07:50:11;7.80;99.90
22319;DHT22;11327;52.334;9.506;2022-11-25T07:53:32;7.80;99.90
22319;DHT22;11327;52.334;9.506;2022-11-25T07:56:54;7.80;99.90
22319;DHT22;11327;52.334;9.506;2022-11-25T08:00:16;7.80;99.90
22319;DHT22;11327;52.334;9.506;2022-11-25T08:03:39;7.90;99.90
22319;DHT22;11327;52.334;9.506;2022-11-25T08:07:00;7.90;99.90
22319;DHT22;11327;52.334;9.506;2022-11-25T08:10:21;7.90;99.90
22319;DHT22;11327;52.334;9.506;2022-11-25T08:13:43;7.80;99.90
22319;DHT22;11327;52.334;9.506;2022-11-25T08:17:04;7.80;99.90
22319;DHT22;11327;52.334;9.506;2022-11-25T08:20:25;7.90;99.90
22319;DHT22;11327;52.334;9.506;2022-11-25T08:23:47;7.80;99.90
22319;DHT22;11327;52.334;9.506;2022-11-25T08:27:09;7.70;99.90
22319;DHT22;11327;52.334;9.506;2022-11-25T08:30:30;7.60;99.90
22319;DHT22;11327;52.334;9.506;2022-11-25T08:33:52;7.50;99.90
22319;DHT22;11327;52.334;9.506;2022-11-25T08:37:13;7.50;99.90
22319;DHT22;11327;52.334;9.506;2022-11-25T08:40:35;7.50;99.90
22319;DHT22;11327;52.334;9.506;2022-11-25T08:43:57;7.50;99.90
22319;DHT22;11327;52.334;9.506;2022-11-25T08:47:18;7.40;99.90
22319;DHT22;11327;52.334;9.506;2022-11-25T08:50:41;7.40;99.90
22319;DHT22;11327;52.334;9.506;2022-11-25T08:54:04;7.50;99.90
22319;DHT22;11327;52.334;9.506;2022-11-25T08:57:26;7.60;99.90
22319;DHT22;11327;52.334;9.506;2022-11-25T09:00:47;7.60;99.90
22319;DHT22;11327;52.334;9.506;2022-11-25T09:04:08;7.70;99.90
22319;DHT22;11327;52.334;9.506;2022-11-25T09:07:29;7.90;99.90
22319;DHT22;11327;52.334;9.506;2022-11-25T09:10:50;8.00;99.90
22319;DHT22;11327;52.334;9.506;2022-11-25T09:14:11;8.00;99.90
22319;DHT22;11327;52.334;9.506;2022-11-25T09:17:32;8.00;99.90
22319;DHT22;11327;52.334;9.506;2022-11-25T09:20:56;7.90;99.90
22319;DHT22;11327;52.334;9.506;2022-11-25T09:24:17;7.90;99.90
22319;DHT22;11327;52.334;9.506;2022-11-25T09:27:38;8.00;99.90
22319;DHT22;11327;52.334;9.506;2022-11-25T09:31:07;7.90;99.90
22319;DHT22;11327;52.334;9.506;2022-11-25T09:34:28;7.90;99.90
22319;DHT22;11327;52.334;9.506;2022-11-25T09:37:49;8.00;99.90
22319;DHT22;11327;52.334;9.506;2022-11-25T09:56:35;8.00;99.90
22319;DHT22;11327;52.334;9.506;2022-11-25T10:00:15;8.10;99.90
22319;DHT22;11327;52.334;9.506;2022-11-25T10:03:48;8.00;99.90
22319;DHT22;11327;52.334;9.506;2022-11-25T10:07:14;8.00;99.90
22319;DHT22;11327;52.334;9.506;2022-11-25T10:10:47;8.00;99.90
22319;DHT22;11327;52.334;9.506;2022-11-25T10:14:30;8.00;99.90
22319;DHT22;11327;52.334;9.506;2022-11-25T10:17:55;8.00;99.90
22319;DHT22;11327;52.334;9.506;2022-11-25T10:21:15;8.00;99.90
22319;DHT22;11327;52.334;9.506;2022-11-25T10:24:36;7.90;99.90
22319;DHT22;11327;52.334;9.506;2022-11-25T10:28:03;7.90;99.90
22319;DHT22;11327;52.334;9.506;2022-11-25T10:31:31;7.90;99.90
22319;DHT22;11327;52.334;9.506;2022-11-25T10:34:57;7.80;99.90
22319;DHT22;11327;52.334;9.506;2022-11-25T10:38:40;7.80;99.90
22319;DHT22;11327;52.334;9.506;2022-11-25T10:42:13;7.90;99.90
22319;DHT22;11327;52.334;9.506;2022-11-25T10:45:35;7.90;99.90
22319;DHT22;11327;52.334;9.506;2022-11-25T10:49:06;7.90;99.90
22319;DHT22;11327;52.334;9.506;2022-11-25T10:52:29;7.90;99.90
22319;DHT22;11327;52.334;9.506;2022-11-25T10:56:08;8.00;99.90
22319;DHT22;11327;52.334;9.506;2022-11-25T10:59:30;8.10;99.90
22319;DHT22;11327;52.334;9.506;2022-11-25T11:02:52;8.20;99.90
22319;DHT22;11327;52.334;9.506;2022-11-25T11:06:37;8.40;99.90
22319;DHT22;11327;52.334;9.506;2022-11-25T11:13:35;8.60;99.90
22319;DHT22;11327;52.334;9.506;2022-11-25T11:16:56;8.90;99.90
22319;DHT22;11327;52.334;9.506;2022-11-25T11:20:23;9.00;99.90
22319;DHT22;11327;52.334;9.506;2022-11-25T11:23:53;9.00;99.90
22319;DHT22;11327;52.334;9.506;2022-11-25T11:27:16;9.00;99.90
22319;DHT22;11327;52.334;9.506;2022-11-25T11:30:38;8.90;99.90
22319;DHT22;11327;52.334;9.506;2022-11-25T11:37:51;8.90;99.90
22319;DHT22;11327;52.334;9.506;2022-11-25T11:55:59;9.10;99.90
22319;DHT22;11327;52.334;9.506;2022-11-25T12:03:18;9.30;99.90
22319;DHT22;11327;52.334;9.506;2022-11-25T12:06:41;9.50;99.90
22319;DHT22;11327;52.334;9.506;2022-11-25T12:13:43;9.50;99.90
22319;DHT22;11327;52.334;9.506;2022-11-25T12:17:29;9.60;99.90
22319;DHT22;11327;52.334;9.506;2022-11-25T12:20:56;9.80;99.90
22319;DHT22;11327;52.334;9.506;2022-11-25T12:28:10;10.10;99.90
22319;DHT22;11327;52.334;9.506;2022-11-25T12:31:31;10.30;99.90
22319;DHT22;11327;52.334;9.506;2022-11-25T12:38:41;10.30;99.90
22319;DHT22;11327;52.334;9.506;2022-11-25T12:42:13;10.30;99.90
22319;DHT22;11327;52.334;9.506;2022-11-25T12:45:33;10.20;99.90
22319;DHT22;11327;52.334;9.506;2022-11-25T12:48:56;10.10;99.90
22319;DHT22;11327;52.334;9.506;2022-11-25T12:55:48;10.00;99.90
22319;DHT22;11327;52.334;9.506;2022-11-25T13:07:22;10.10;99.90
22319;DHT22;11327;52.334;9.506;2022-11-25T13:18:24;10.30;99.90
22319;DHT22;11327;52.334;9.506;2022-11-25T13:22:01;10.30;99.90
22319;DHT22;11327;52.334;9.506;2022-11-25T13:25:25;10.30;99.90
22319;DHT22;11327;52.334;9.506;2022-11-25T13:28:46;10.30;99.90
22319;DHT22;11327;52.334;9.506;2022-11-25T13:35:52;10.30;99.90
22319;DHT22;11327;52.334;9.506;2022-11-25T13:39:18;10.30;99.90
22319;DHT22;11327;52.334;9.506;2022-11-25T13:42:44;10.30;99.90
22319;DHT22;11327;52.334;9.506;2022-11-25T13:46:05;10.30;99.90
22319;DHT22;11327;52.334;9.506;2022-11-25T13:53:06;10.30;99.90
22319;DHT22;11327;52.334;9.506;2022-11-25T13:56:30;10.20;99.90
22319;DHT22;11327;52.334;9.506;2022-11-25T13:59:55;10.20;99.90
22319;DHT22;11327;52.334;9.506;2022-11-25T14:21:41;10.10;99.90
22319;DHT22;11327;52.334;9.506;2022-11-25T14:28:50;9.90;99.90
22319;DHT22;11327;52.334;9.506;2022-11-25T14:35:52;9.70;99.90
22319;DHT22;11327;52.334;9.506;2022-11-25T14:43:06;9.60;99.90
22319;DHT22;11327;52.334;9.506;2022-11-25T14:46:29;9.50;99.90
22319;DHT22;11327;52.334;9.506;2022-11-25T14:49:52;9.40;99.90
22319;DHT22;11327;52.334;9.506;2022-11-25T14:53:13;9.40;99.90
22319;DHT22;11327;52.334;9.506;2022-11-25T14:56:35;9.30;99.90
22319;DHT22;11327;52.334;9.506;2022-11-25T15:00:03;9.30;99.90
22319;DHT22;11327;52.334;9.506;2022-11-25T15:03:24;9.20;99.90
22319;DHT22;11327;52.334;9.506;2022-11-25T15:06:51;9.10;99.90
22319;DHT22;11327;52.334;9.506;2022-11-25T15:10:37;9.10;99.90
22319;DHT22;11327;52.334;9.506;2022-11-25T15:14:04;9.00;99.90
22319;DHT22;11327;52.334;9.506;2022-11-25T15:17:32;8.90;99.90
22319;DHT22;11327;52.334;9.506;2022-11-25T15:20:58;8.90;99.90
22319;DHT22;11327;52.334;9.506;2022-11-25T15:24:22;8.80;99.90
22319;DHT22;11327;52.334;9.506;2022-11-25T15:27:45;8.70;99.90
22319;DHT22;11327;52.334;9.506;2022-11-25T15:31:09;8.70;99.90
22319;DHT22;11327;52.334;9.506;2022-11-25T15:34:32;8.60;99.90
22319;DHT22;11327;52.334;9.506;2022-11-25T15:37:53;8.60;99.90
22319;DHT22;11327;52.334;9.506;2022-11-25T15:41:29;8.60;99.90
22319;DHT22;11327;52.334;9.506;2022-11-25T15:44:57;8.60;99.90
22319;DHT22;11327;52.334;9.506;2022-11-25T15:48:24;8.60;99.90
22319;DHT22;11327;52.334;9.506;2022-11-25T15:51:56;8.50;99.90
22319;DHT22;11327;52.334;9.506;2022-11-25T15:55:34;8.50;99.90
22319;DHT22;11327;52.334;9.506;2022-11-25T15:58:56;8.40;99.90
22319;DHT22;11327;52.334;9.506;2022-11-25T16:06:23;8.30;99.90
22319;DHT22;11327;52.334;9.506;2022-11-25T16:09:49;8.30;99.90
22319;DHT22;11327;52.334;9.506;2022-11-25T16:16:41;8.20;99.90
22319;DHT22;11327;52.334;9.506;2022-11-25T16:20:03;8.20;99.90
22319;DHT22;11327;52.334;9.506;2022-11-25T16:23:24;8.20;99.90
22319;DHT22;11327;52.334;9.506;2022-11-25T16:26:57;8.30;99.90
22319;DHT22;11327;52.334;9.506;2022-11-25T16:30:20;8.20;99.90
22319;DHT22;11327;52.334;9.506;2022-11-25T16:33:41;8.30;99.90
22319;DHT22;11327;52.334;9.506;2022-11-25T16:37:02;8.40;99.90
22319;DHT22;11327;52.334;9.506;2022-11-25T16:40:23;8.40;99.90
22319;DHT22;11327;52.334;9.506;2022-11-25T16:43:46;8.50;99.90
22319;DHT22;11327;52.334;9.506;2022-11-25T16:47:08;8.50;99.90
22319;DHT22;11327;52.334;9.506;2022-11-25T16:50:29;8.50;99.90
22319;DHT22;11327;52.334;9.506;2022-11-25T16:53:50;8.60;99.90
22319;DHT22;11327;52.334;9.506;2022-11-25T16:57:17;8.50;99.90
22319;DHT22;11327;52.334;9.506;2022-11-25T17:00:39;8.50;99.90
22319;DHT22;11327;52.334;9.506;2022-11-25T17:04:00;8.50;99.90
22319;DHT22;11327;52.334;9.506;2022-11-25T17:07:21;8.50;99.90
22319;DHT22;11327;52.334;9.506;2022-11-25T17:10:43;8.50;99.90
22319;DHT22;11327;52.334;9.506;2022-11-25T17:14:09;8.50;99.90
22319;DHT22;11327;52.334;9.506;2022-11-25T17:17:28;8.60;99.90
22319;DHT22;11327;52.334;9.506;2022-11-25T17:20:49;8.70;99.90
22319;DHT22;11327;52.334;9.506;2022-11-25T17:24:21;8.80;99.90
22319;DHT22;11327;52.334;9.506;2022-11-25T17:27:43;8.80;99.90
22319;DHT22;11327;52.334;9.506;2022-11-25T17:31:08;8.80;99.90
22319;DHT22;11327;52.334;9.506;2022-11-25T17:34:29;8.70;99.90
22319;DHT22;11327;52.334;9.506;2022-11-25T17:37:50;8.80;99.90
22319;DHT22;11327;52.334;9.506;2022-11-25T17:41:13;8.80;99.90
22319;DHT22;11327;52.334;9.506;2022-11-25T17:44:34;8.80;99.90
22319;DHT22;11327;52.334;9.506;2022-11-25T17:47:56;8.80;99.90
22319;DHT22;11327;52.334;9.506;2022-11-25T17:51:17;8.80;99.90
22319;DHT22;11327;52.334;9.506;2022-11-25T17:54:38;8.80;99.90
22319;DHT22;11327;52.334;9.506;2022-11-25T17:57:59;8.90;99.90
22319;DHT22;11327;52.334;9.506;2022-11-25T18:01:21;8.90;99.90
22319;DHT22;11327;52.334;9.506;2022-11-25T18:04:41;8.90;99.90
22319;DHT22;11327;52.334;9.506;2022-11-25T18:08:03;8.90;99.90
22319;DHT22;11327;52.334;9.506;2022-11-25T18:11:24;8.90;99.90
22319;DHT22;11327;52.334;9.506;2022-11-25T18:14:45;8.90;99.90
22319;DHT22;11327;52.334;9.506;2022-11-25T18:18:14;8.90;99.90
22319;DHT22;11327;52.334;9.506;2022-11-25T18:21:31;9.00;99.90
22319;DHT22;11327;52.334;9.506;2022-11-25T18:24:52;9.00;99.90
22319;DHT22;11327;52.334;9.506;2022-11-25T18:28:18;9.00;99.90
22319;DHT22;11327;52.334;9.506;2022-11-25T18:31:40;9.00;99.90
22319;DHT22;11327;52.334;9.506;2022-11-25T18:35:01;9.10;99.90
22319;DHT22;11327;52.334;9.506;2022-11-25T18:38:22;9.10;99.90
22319;DHT22;11327;52.334;9.506;2022-11-25T18:41:44;9.10;99.90
22319;DHT22;11327;52.334;9.506;2022-11-25T18:45:13;9.10;99.90
22319;DHT22;11327;52.334;9.506;2022-11-25T18:48:31;9.20;99.90
22319;DHT22;11327;52.334;9.506;2022-11-25T18:51:53;9.30;99.90
22319;DHT22;11327;52.334;9.506;2022-11-25T18:55:15;9.20;99.90
22319;DHT22;11327;52.334;9.506;2022-11-25T18:58:37;9.30;99.90
22319;DHT22;11327;52.334;9.506;2022-11-25T19:01:59;9.30;99.90
22319;DHT22;11327;52.334;9.506;2022-11-25T19:08:44;9.30;99.90
22319;DHT22;11327;52.334;9.506;2022-11-25T19:12:07;9.30;99.90
22319;DHT22;11327;52.334;9.506;2022-11-25T19:15:29;9.40;99.90
22319;DHT22;11327;52.334;9.506;2022-11-25T19:18:50;9.30;99.90
22319;DHT22;11327;52.334;9.506;2022-11-25T19:22:12;9.30;99.90
22319;DHT22;11327;52.334;9.506;2022-11-25T19:25:34;9.30;99.90
22319;DHT22;11327;52.334;9.506;2022-11-25T19:29:01;9.30;99.90
22319;DHT22;11327;52.334;9.506;2022-11-25T19:32:27;9.30;99.90
22319;DHT22;11327;52.334;9.506;2022-11-25T19:35:49;9.30;99.90
22319;DHT22;11327;52.334;9.506;2022-11-25T19:39:15;9.30;99.90
22319;DHT22;11327;52.334;9.506;2022-11-25T19:42:37;9.30;99.90
22319;DHT22;11327;52.334;9.506;2022-11-25T19:45:58;9.20;99.90
22319;DHT22;11327;52.334;9.506;2022-11-25T19:49:20;9.20;99.90
22319;DHT22;11327;52.334;9.506;2022-11-25T19:52:41;9.20;99.90
22319;DHT22;11327;52.334;9.506;2022-11-25T19:56:02;9.10;99.90
22319;DHT22;11327;52.334;9.506;2022-11-25T19:59:24;9.10;99.90
22319;DHT22;11327;52.334;9.506;2022-11-25T20:02:46;9.10;99.90
22319;DHT22;11327;52.334;9.506;2022-11-25T20:06:13;9.10;99.90
22319;DHT22;11327;52.334;9.506;2022-11-25T20:09:34;9.20;99.90
22319;DHT22;11327;52.334;9.506;2022-11-25T20:12:55;9.10;99.90
22319;DHT22;11327;52.334;9.506;2022-11-25T20:16:22;9.10;99.90
22319;DHT22;11327;52.334;9.506;2022-11-25T20:19:44;9.10;99.90
22319;DHT22;11327;52.334;9.506;2022-11-25T20:23:29;9.00;99.90
22319;DHT22;11327;52.334;9.506;2022-11-25T20:26:51;9.00;99.90
22319;DHT22;11327;52.334;9.506;2022-11-25T20:30:22;8.90;99.90
22319;DHT22;11327;52.334;9.506;2022-11-25T20:33:43;8.90;99.90
22319;DHT22;11327;52.334;9.506;2022-11-25T20:37:04;8.90;99.90
22319;DHT22;11327;52.334;9.506;2022-11-25T20:40:35;8.80;99.90
22319;DHT22;11327;52.334;9.506;2022-11-25T20:43:54;8.90;99.90
22319;DHT22;11327;52.334;9.506;2022-11-25T20:47:17;8.70;99.90
22319;DHT22;11327;52.334;9.506;2022-11-25T20:50:39;8.80;99.90
22319;DHT22;11327;52.334;9.506;2022-11-25T20:54:00;8.70;99.90
22319;DHT22;11327;52.334;9.506;2022-11-25T20:57:21;8.70;99.90
22319;DHT22;11327;52.334;9.506;2022-11-25T21:00:42;8.60;99.90
22319;DHT22;11327;52.334;9.506;2022-11-25T21:04:03;8.70;99.90
22319;DHT22;11327;52.334;9.506;2022-11-25T21:07:24;8.70;99.90
22319;DHT22;11327;52.334;9.506;2022-11-25T21:10:45;8.70;99.90
22319;DHT22;11327;52.334;9.506;2022-11-25T21:14:15;8.70;99.90
22319;DHT22;11327;52.334;9.506;2022-11-25T21:17:36;8.70;99.90
22319;DHT22;11327;52.334;9.506;2022-11-25T21:20:57;8.70;99.90
22319;DHT22;11327;52.334;9.506;2022-11-25T21:24:30;8.60;99.90
22319;DHT22;11327;52.334;9.506;2022-11-25T21:27:51;8.60;99.90
22319;DHT22;11327;52.334;9.506;2022-11-25T21:31:18;8.60;99.90
22319;DHT22;11327;52.334;9.506;2022-11-25T21:34:40;8.60;99.90
22319;DHT22;11327;52.334;9.506;2022-11-25T21:38:02;8.60;99.90
22319;DHT22;11327;52.334;9.506;2022-11-25T21:41:24;8.50;99.90
22319;DHT22;11327;52.334;9.506;2022-11-25T21:44:45;8.50;99.90
22319;DHT22;11327;52.334;9.506;2022-11-25T21:48:18;8.50;99.90
22319;DHT22;11327;52.334;9.506;2022-11-25T21:51:39;8.60;99.90
22319;DHT22;11327;52.334;9.506;2022-11-25T21:55:00;8.50;99.90
22319;DHT22;11327;52.334;9.506;2022-11-25T21:58:26;8.50;99.90
22319;DHT22;11327;52.334;9.506;2022-11-25T22:01:48;8.50;99.90
22319;DHT22;11327;52.334;9.506;2022-11-25T22:05:14;8.50;99.90
22319;DHT22;11327;52.334;9.506;2022-11-25T22:08:35;8.40;99.90
22319;DHT22;11327;52.334;9.506;2022-11-25T22:11:56;8.50;99.90
22319;DHT22;11327;52.334;9.506;2022-11-25T22:15:19;8.40;99.90
22319;DHT22;11327;52.334;9.506;2022-11-25T22:18:41;8.40;99.90
22319;DHT22;11327;52.334;9.506;2022-11-25T22:22:02;8.30;99.90
22319;DHT22;11327;52.334;9.506;2022-11-25T22:25:26;8.30;99.90
22319;DHT22;11327;52.334;9.506;2022-11-25T22:28:49;8.30;99.90
22319;DHT22;11327;52.334;9.506;2022-11-25T22:32:15;8.30;99.90
22319;DHT22;11327;52.334;9.506;2022-11-25T22:35:37;8.20;99.90
22319;DHT22;11327;52.334;9.506;2022-11-25T22:42:48;8.10;99.90
22319;DHT22;11327;52.334;9.506;2022-11-25T22:46:06;8.10;99.90
22319;DHT22;11327;52.334;9.506;2022-11-25T22:49:39;8.10;99.90
22319;DHT22;11327;52.334;9.506;2022-11-25T22:53:01;8.00;99.90
22319;DHT22;11327;52.334;9.506;2022-11-25T22:56:23;8.00;99.90
22319;DHT22;11327;52.334;9.506;2022-11-25T22:59:44;8.00;99.90
22319;DHT22;11327;52.334;9.506;2022-11-25T23:03:09;8.00;99.90
22319;DHT22;11327;52.334;9.506;2022-11-25T23:06:29;7.90;99.90
22319;DHT22;11327;52.334;9.506;2022-11-25T23:09:51;7.90;99.90
22319;DHT22;11327;52.334;9.506;2022-11-25T23:13:12;8.00;99.90
22319;DHT22;11327;52.334;9.506;2022-11-25T23:16:34;7.90;99.90
22319;DHT22;11327;52.334;9.506;2022-11-25T23:19:55;7.90;99.90
22319;DHT22;11327;52.334;9.506;2022-11-25T23:23:18;7.90;99.90
22319;DHT22;11327;52.334;9.506;2022-11-25T23:26:40;7.80;99.90
22319;DHT22;11327;52.334;9.506;2022-11-25T23:30:01;7.80;99.90
22319;DHT22;11327;52.334;9.506;2022-11-25T23:33:37;7.80;99.90
22319;DHT22;11327;52.334;9.506;2022-11-25T23:36:59;7.80;99.90
22319;DHT22;11327;52.334;9.506;2022-11-25T23:40:21;7.80;99.90
22319;DHT22;11327;52.334;9.506;2022-11-25T23:43:43;7.80;99.90
22319;DHT22;11327;52.334;9.506;2022-11-25T23:47:08;7.80;99.90
22319;DHT22;11327;52.334;9.506;2022-11-25T23:50:30;7.80;99.90
22319;DHT22;11327;52.334;9.506;2022-11-25T23:53:53;7.80;99.90